Time;durP1;ratioP1;P1;durP2;ratioP2;P2;SDS_P1;SDS_P2;PMS_P1;PMS_P2;Temp;Humidity;BMP_temperature;BMP_pressure;BME280_temperature;BME280_humidity;BME280_pressure;Samples;Min_cycle;Max_cycle;Signal;HPM_P1;HPM_P2
2022/08/20 00:00:42;;;;;;;10.23;8.40;;;;;;;22.52;68.00;100162.91;5073794;28;20114;-69
2022/08/20 00:03:14;;;;;;;11.30;8.48;;;;;;;22.54;68.42;100157.63;5084902;28;20059;-68
2022/08/20 00:05:44;;;;;;;10.02;7.88;;;;;;;22.56;68.32;100155.19;5073222;28;20063;-68
2022/08/20 00:08:14;;;;;;;11.45;7.75;;;;;;;22.56;68.80;100152.38;5072865;28;20627;-68
2022/08/20 00:10:44;;;;;;;10.40;8.50;;;;;;;22.52;69.44;100164.94;5073261;28;20049;-69
2022/08/20 00:13:25;;;;;;;8.98;7.70;;;;;;;22.55;69.48;100161.28;5072491;28;20041;-69
2022/08/20 00:15:53;;;;;;;9.80;8.18;;;;;;;22.56;69.87;100158.03;5082065;28;20062;-68
2022/08/20 00:18:22;;;;;;;10.40;8.63;;;;;;;22.56;70.10;100160.88;5087678;28;20055;-68
2022/08/20 00:20:53;;;;;;;11.52;8.10;;;;;;;22.55;70.63;100169.78;5073242;28;20400;-69
2022/08/20 00:23:22;;;;;;;8.82;7.88;;;;;;;22.59;70.84;100162.09;5072652;28;20485;-68
2022/08/20 00:25:50;;;;;;;12.18;9.25;;;;;;;22.58;70.82;100155.59;5072832;28;20056;-69
2022/08/20 00:28:18;;;;;;;10.88;9.77;;;;;;;22.46;72.24;100158.84;5072538;28;20052;-69
2022/08/20 00:30:47;;;;;;;10.52;9.00;;;;;;;22.47;72.31;100163.31;5085000;28;20508;-68
2022/08/20 00:33:17;;;;;;;11.88;9.63;;;;;;;22.46;73.07;100168.16;5085922;28;20059;-68
2022/08/20 00:35:47;;;;;;;15.18;10.35;;;;;;;22.39;73.51;100162.47;5072700;28;20493;-69
2022/08/20 00:38:14;;;;;;;13.90;10.75;;;;;;;22.41;73.89;100171.41;5072871;28;20052;-68
2022/08/20 00:40:46;;;;;;;14.75;11.50;;;;;;;22.31;74.25;100168.56;5072795;28;20048;-68
2022/08/20 00:43:37;;;;;;;16.38;11.57;;;;;;;22.23;75.24;100165.69;5071658;28;20075;-68
2022/08/20 00:46:09;;;;;;;16.15;10.88;;;;;;;22.25;75.28;100154.75;5052706;28;20064;-68
2022/08/20 00:48:39;;;;;;;17.60;12.27;;;;;;;22.22;75.03;100154.72;5052746;28;20462;-68
2022/08/20 00:51:11;;;;;;;13.80;10.38;;;;;;;22.20;75.04;100162.81;5071773;28;20071;-69
2022/08/20 00:53:39;;;;;;;14.02;10.68;;;;;;;22.21;74.89;100167.28;5072535;28;20166;-69
2022/08/20 00:56:10;;;;;;;16.35;12.05;;;;;;;22.01;75.76;100155.47;5072366;28;20048;-69
2022/08/20 00:58:40;;;;;;;14.05;10.77;;;;;;;22.07;75.38;100153.88;5075041;28;20051;-69
2022/08/20 01:01:10;;;;;;;18.05;13.00;;;;;;;22.05;75.34;100159.13;5075271;28;20057;-69
2022/08/20 01:03:43;;;;;;;14.50;11.18;;;;;;;22.06;75.41;100152.25;5072282;28;20579;-69
2022/08/20 01:06:10;;;;;;;11.98;9.90;;;;;;;22.08;75.54;100161.16;5072395;28;20052;-69
2022/08/20 01:08:42;;;;;;;12.43;10.35;;;;;;;22.00;75.95;100171.66;5072089;28;20408;-69
2022/08/20 01:11:15;;;;;;;12.15;9.65;;;;;;;22.04;76.14;100168.84;5072417;28;20060;-69
2022/08/20 01:13:45;;;;;;;13.95;10.00;;;;;;;22.08;76.02;100175.34;5082231;28;20079;-69
2022/08/20 01:16:19;;;;;;;11.77;9.23;;;;;;;22.10;75.92;100176.56;5078525;28;20052;-69
2022/08/20 01:18:48;;;;;;;12.10;9.27;;;;;;;22.14;75.73;100182.25;5072412;28;20488;-69
2022/08/20 01:21:21;;;;;;;11.07;8.00;;;;;;;22.15;75.71;100186.69;5071864;28;20072;-69
2022/08/20 01:23:59;;;;;;;4.38;3.60;;;;;;;22.01;74.10;100196.00;5071904;28;20389;-69
2022/08/20 01:26:34;;;;;;;3.93;2.50;;;;;;;22.00;73.11;100193.53;5071658;28;20061;-70
2022/08/20 01:29:08;;;;;;;3.85;2.55;;;;;;;21.95;72.65;100202.44;5086209;28;20048;-69
2022/08/20 01:31:38;;;;;;;3.33;2.38;;;;;;;21.91;72.06;100198.78;5079691;28;20056;-68
2022/08/20 01:34:09;;;;;;;2.40;1.90;;;;;;;21.86;72.25;100200.00;5071867;28;20045;-68
2022/08/20 01:36:40;;;;;;;3.08;2.05;;;;;;;21.79;72.53;100195.06;5071846;28;20059;-68
2022/08/20 01:39:11;;;;;;;2.50;1.80;;;;;;;21.77;72.68;100183.31;5071776;28;20049;-67
2022/08/20 01:41:52;;;;;;;2.10;1.60;;;;;;;21.76;73.81;100192.25;5071041;28;20063;-69
2022/08/20 01:44:20;;;;;;;2.60;1.80;;;;;;;21.72;73.56;100185.75;5071894;28;20056;-69
2022/08/20 01:46:51;;;;;;;2.88;1.85;;;;;;;21.65;74.13;100183.69;5071687;28;20052;-69
2022/08/20 01:49:30;;;;;;;2.45;1.90;;;;;;;21.58;74.27;100186.47;5071860;28;20493;-69
2022/08/20 01:52:04;;;;;;;4.43;2.20;;;;;;;21.51;74.65;100177.94;5071980;28;20060;-70
2022/08/20 01:54:32;;;;;;;2.25;1.98;;;;;;;21.54;74.83;100188.47;5071757;28;20071;-69
2022/08/20 01:57:06;;;;;;;3.28;2.05;;;;;;;21.54;74.68;100186.44;5075182;28;20054;-69
2022/08/20 01:59:34;;;;;;;2.35;1.83;;;;;;;21.54;74.66;100185.63;5089385;28;20048;-68
2022/08/20 02:02:02;;;;;;;2.22;1.60;;;;;;;21.53;74.40;100182.00;5084817;28;20412;-62
2022/08/20 02:04:30;;;;;;;2.63;1.70;;;;;;;21.57;74.12;100184.88;5069335;28;20060;-62
2022/08/20 02:07:03;;;;;;;2.10;1.70;;;;;;;21.58;74.65;100189.31;5080124;28;20048;-67
2022/08/20 02:09:35;;;;;;;3.17;2.38;;;;;;;21.59;74.81;100196.63;5072210;28;20056;-69
2022/08/20 02:12:06;;;;;;;4.32;2.97;;;;;;;21.62;74.93;100187.31;5073976;28;20077;-68
2022/08/20 02:14:33;;;;;;;3.72;3.33;;;;;;;21.62;74.78;100187.31;5089288;28;20052;-69
2022/08/20 02:17:01;;;;;;;4.80;3.67;;;;;;;21.63;74.76;100177.59;5092917;28;20048;-69
2022/08/20 02:19:37;;;;;;;3.45;3.00;;;;;;;21.63;74.94;100186.09;5077655;28;20055;-69
2022/08/20 02:22:20;;;;;;;5.53;4.10;;;;;;;21.59;74.66;100185.28;5093455;28;20423;-68
2022/08/20 02:24:48;;;;;;;5.22;4.72;;;;;;;21.59;74.50;100185.28;5075730;28;20049;-69
2022/08/20 02:27:22;;;;;;;6.82;5.47;;;;;;;21.50;75.11;100185.59;5075029;28;20400;-69
2022/08/20 02:29:50;;;;;;;9.05;7.32;;;;;;;21.48;75.26;100188.88;5075465;28;20495;-69
2022/08/20 02:32:18;;;;;;;9.55;8.45;;;;;;;21.40;75.86;100194.84;5074517;28;20056;-69
2022/08/20 02:34:45;;;;;;;10.65;9.55;;;;;;;21.27;76.42;100191.50;5081248;28;20079;-69
2022/08/20 02:37:15;;;;;;;10.70;9.35;;;;;;;21.30;76.46;100193.56;5095060;28;20047;-69
2022/08/20 02:39:42;;;;;;;13.55;11.25;;;;;;;21.38;76.31;100189.56;5075478;28;20060;-68
2022/08/20 02:42:11;;;;;;;15.15;12.60;;;;;;;21.36;76.78;100185.53;5074921;28;20056;-68
2022/08/20 02:44:40;;;;;;;13.50;11.40;;;;;;;21.40;76.62;100192.03;5075197;28;20049;-69
2022/08/20 02:47:07;;;;;;;14.63;12.50;;;;;;;21.42;76.66;100195.31;5074688;28;20497;-69
2022/08/20 02:49:35;;;;;;;14.10;12.60;;;;;;;21.45;76.68;100197.34;5087412;28;20059;-69
2022/08/20 02:52:02;;;;;;;15.82;14.23;;;;;;;21.40;77.09;100198.50;5093896;28;20044;-69
2022/08/20 02:54:29;;;;;;;17.85;15.15;;;;;;;21.43;77.24;100203.38;5080954;28;20064;-69
2022/08/20 02:56:57;;;;;;;15.63;13.88;;;;;;;21.44;77.42;100195.69;5074778;28;20059;-69
2022/08/20 02:59:24;;;;;;;16.95;15.25;;;;;;;21.48;77.20;100200.19;5074180;28;20064;-69
2022/08/20 03:01:53;;;;;;;17.70;15.80;;;;;;;21.51;77.18;100203.44;5074975;28;20509;-69
2022/08/20 03:04:20;;;;;;;25.60;19.92;;;;;;;21.41;77.85;100204.97;5074425;28;20370;-69
2022/08/20 03:06:47;;;;;;;21.88;16.98;;;;;;;21.41;78.07;100200.09;5072194;28;20052;-69
2022/08/20 03:09:15;;;;;;;20.08;17.90;;;;;;;21.44;77.70;100198.53;5074435;28;20465;-68
2022/08/20 03:11:42;;;;;;;19.67;17.38;;;;;;;21.48;77.40;100203.03;5073753;28;20056;-68
2022/08/20 03:14:10;;;;;;;20.92;16.75;;;;;;;21.44;77.57;100198.53;5088769;28;20386;-69
2022/08/20 03:16:37;;;;;;;22.75;19.60;;;;;;;21.45;77.57;100188.84;5074440;28;20056;-68
2022/08/20 03:19:07;;;;;;;22.83;18.52;;;;;;;21.45;77.94;100195.31;5074255;28;20051;-69
2022/08/20 03:21:34;;;;;;;24.60;20.30;;;;;;;21.41;77.91;100188.78;5071138;28;20044;-68
2022/08/20 03:24:01;;;;;;;22.02;19.73;;;;;;;21.35;78.11;100181.03;5093220;28;20052;-69
2022/08/20 03:26:29;;;;;;;20.33;18.05;;;;;;;21.31;78.25;100183.84;5073987;28;20409;-69
2022/08/20 03:28:56;;;;;;;20.40;18.20;;;;;;;21.36;78.09;100185.53;5074457;28;20067;-69
2022/08/20 03:31:23;;;;;;;25.48;21.35;;;;;;;21.32;78.25;100179.81;5074100;28;20052;-69
2022/08/20 03:33:51;;;;;;;23.30;19.50;;;;;;;21.29;78.29;100172.94;5074292;28;20052;-69
2022/08/20 03:36:19;;;;;;;23.00;19.67;;;;;;;21.25;78.14;100174.09;5074138;28;20059;-69
2022/08/20 03:38:47;;;;;;;24.13;21.52;;;;;;;21.24;78.52;100176.13;5094289;28;20056;-69
2022/08/20 03:41:14;;;;;;;24.27;21.20;;;;;;;21.19;78.93;100181.38;5078745;28;20055;-69
2022/08/20 03:43:41;;;;;;;26.27;22.27;;;;;;;21.16;78.68;100182.94;5073981;28;20060;-69
2022/08/20 03:46:09;;;;;;;23.98;19.80;;;;;;;21.12;78.98;100178.47;5073756;28;20481;-69
2022/08/20 03:48:37;;;;;;;22.77;20.27;;;;;;;21.02;79.13;100175.16;5073804;28;20401;-68
2022/08/20 03:51:05;;;;;;;22.50;19.33;;;;;;;21.00;79.29;100180.41;5076488;28;20048;-68
2022/08/20 03:53:34;;;;;;;22.50;18.10;;;;;;;21.03;79.11;100171.13;5093852;28;20060;-69
2022/08/20 03:56:05;;;;;;;23.10;20.67;;;;;;;20.98;79.41;100170.69;5084391;28;20056;-69
2022/08/20 03:58:34;;;;;;;24.42;21.15;;;;;;;21.02;79.28;100171.50;5073456;28;20052;-69
2022/08/20 04:01:01;;;;;;;24.77;20.38;;;;;;;20.98;79.30;100173.53;5073293;28;20056;-69
2022/08/20 04:03:29;;;;;;;26.30;20.73;;;;;;;21.00;79.08;100176.78;5072929;28;20052;-69
2022/08/20 04:05:57;;;;;;;27.73;21.85;;;;;;;20.93;79.16;100177.50;5072888;28;20047;-69
2022/08/20 04:08:29;;;;;;;22.17;19.42;;;;;;;20.94;79.05;100175.50;5073119;28;20059;-69
2022/08/20 04:10:58;;;;;;;23.70;20.70;;;;;;;20.81;79.49;100167.31;5073565;28;20051;-69
2022/08/20 04:13:27;;;;;;;22.40;19.55;;;;;;;20.83;79.31;100170.56;5082040;28;20056;-69
2022/08/20 04:15:55;;;;;;;25.20;20.55;;;;;;;20.84;79.31;100175.00;5090932;28;20048;-69
2022/08/20 04:18:24;;;;;;;25.30;20.90;;;;;;;20.85;79.25;100173.81;5072925;28;20068;-71
2022/08/20 04:20:53;;;;;;;22.23;19.02;;;;;;;20.87;78.98;100179.06;5085798;28;20052;-69
2022/08/20 04:23:21;;;;;;;23.13;19.33;;;;;;;20.86;78.88;100175.44;5072760;28;20504;-69
2022/08/20 04:25:48;;;;;;;23.65;19.17;;;;;;;20.86;78.72;100175.44;5073247;28;20057;-69
2022/08/20 04:28:24;;;;;;;22.77;19.35;;;;;;;20.86;78.49;100183.94;5072844;28;20052;-69
2022/08/20 04:30:52;;;;;;;22.58;18.90;;;;;;;20.83;78.55;100186.72;5073405;28;20064;-69
2022/08/20 04:33:19;;;;;;;23.67;20.02;;;;;;;20.80;78.67;100190.34;5071849;28;20055;-68
2022/08/20 04:35:46;;;;;;;22.90;20.45;;;;;;;20.77;78.60;100193.97;5087322;28;20123;-70
2022/08/20 04:38:16;;;;;;;22.40;18.70;;;;;;;20.77;78.58;100199.63;5076666;28;20064;-69
2022/08/20 04:40:56;;;;;;;25.85;21.05;;;;;;;20.73;78.67;100204.47;5073052;28;20044;-69
2022/08/20 04:43:27;;;;;;;31.05;23.33;;;;;;;20.70;78.79;100208.03;5072291;28;20052;-69
2022/08/20 04:45:56;;;;;;;23.08;19.00;;;;;;;20.70;78.51;100205.22;5072774;28;20048;-69
2022/08/20 04:48:25;;;;;;;24.40;21.13;;;;;;;20.71;78.68;100218.19;5074205;28;20056;-70
2022/08/20 04:50:53;;;;;;;27.80;22.88;;;;;;;20.71;78.85;100223.84;5092776;28;20048;-69
2022/08/20 04:53:22;;;;;;;43.17;27.95;;;;;;;20.69;78.79;100229.88;5079635;28;20056;-69
2022/08/20 04:55:50;;;;;;;;;;;;;;;20.64;79.17;100233.88;5073209;28;20053;-69
2022/08/20 04:58:21;;;;;;;27.45;23.02;;;;;;;20.67;79.37;100241.59;5072039;28;19927;-70
2022/08/20 05:00:51;;;;;;;30.52;23.23;;;;;;;20.66;79.40;100244.81;5072983;28;20512;-70
2022/08/20 05:03:19;;;;;;;23.48;20.02;;;;;;;20.73;79.47;100233.56;5073668;28;20055;-69
2022/08/20 05:05:47;;;;;;;29.70;23.25;;;;;;;20.76;79.20;100243.28;5092697;28;20060;-69
2022/08/20 05:08:16;;;;;;;27.55;21.35;;;;;;;20.80;79.40;100239.28;5084646;28;20079;-69
2022/08/20 05:10:44;;;;;;;25.20;21.02;;;;;;;20.89;78.87;100247.44;5073111;28;20060;-70
2022/08/20 05:13:11;;;;;;;22.77;19.13;;;;;;;20.92;78.73;100243.03;5078110;28;20056;-69
2022/08/20 05:15:39;;;;;;;25.65;22.13;;;;;;;20.97;78.46;100245.50;5051883;28;20061;-69
2022/08/20 05:18:08;;;;;;;27.40;22.58;;;;;;;21.03;78.57;100250.41;5055850;28;20044;-69
2022/08/20 05:20:38;;;;;;;;;;;;;;;21.06;78.60;100255.31;5073005;28;20491;-69
2022/08/20 05:23:08;;;;;;;24.00;21.30;;;;;;;21.12;78.65;100258.56;5072188;28;20292;-69
2022/08/20 05:25:35;;;;;;;;;;;;;;;21.16;78.49;100256.59;5072845;28;20056;-69
2022/08/20 05:28:08;;;;;;;26.95;21.08;;;;;;;21.28;78.10;100261.13;5087109;28;19927;-70
2022/08/20 05:30:37;;;;;;;26.48;23.42;;;;;;;21.29;77.99;100251.41;5072448;28;20055;-69
2022/08/20 05:33:05;;;;;;;31.48;24.10;;;;;;;21.36;77.59;100250.69;5072285;28;20048;-69
2022/08/20 05:35:37;;;;;;;31.92;24.33;;;;;;;21.40;77.41;100243.03;5076154;28;20052;-69
2022/08/20 05:38:05;;;;;;;26.80;22.77;;;;;;;21.42;77.37;100252.78;5089565;28;20056;-69
2022/08/20 05:40:33;;;;;;;27.17;21.88;;;;;;;21.46;77.46;100239.44;5071717;28;20063;-69
2022/08/20 05:43:03;;;;;;;28.58;23.80;;;;;;;21.52;76.87;100248.38;5072103;28;20063;-69
2022/08/20 05:45:31;;;;;;;32.42;25.48;;;;;;;21.58;76.78;100237.50;5074269;28;20052;-68
2022/08/20 05:47:58;;;;;;;27.48;22.58;;;;;;;21.58;76.88;100243.16;5086102;28;20044;-69
2022/08/20 05:50:25;;;;;;;29.90;23.58;;;;;;;21.60;76.34;100240.75;5081480;28;20048;-68
2022/08/20 05:52:54;;;;;;;25.67;21.38;;;;;;;21.73;76.02;100258.22;5076264;28;20059;-69
2022/08/20 05:55:22;;;;;;;27.05;21.95;;;;;;;21.80;75.79;100250.59;5075932;28;20060;-69
2022/08/20 05:57:56;;;;;;;19.58;17.30;;;;;;;21.94;75.47;100249.81;5075607;28;20048;-69
2022/08/20 06:00:23;;;;;;;21.83;18.58;;;;;;;22.06;74.81;100246.66;5076332;28;20052;-64
2022/08/20 06:05:35;;;;;;;21.05;18.90;;;;;;;22.34;73.88;100250.84;5083772;28;20060;-69
2022/08/20 06:08:06;;;;;;;22.00;19.55;;;;;;;22.57;73.16;100244.81;5075959;28;20044;-70
2022/08/20 06:10:33;;;;;;;21.45;18.85;;;;;;;22.67;72.76;100246.88;5076182;28;20063;-68
2022/08/20 06:13:01;;;;;;;20.92;18.60;;;;;;;22.80;71.92;100247.28;5089028;28;20416;-68
2022/08/20 06:15:29;;;;;;;24.38;18.15;;;;;;;22.87;71.69;100255.81;5087881;28;20049;-68
2022/08/20 06:17:56;;;;;;;21.98;19.02;;;;;;;22.86;71.71;100247.72;5075756;28;20055;-68
2022/08/20 06:20:24;;;;;;;20.80;18.60;;;;;;;22.83;71.68;100251.38;5075573;28;20499;-69
2022/08/20 06:22:52;;;;;;;22.02;19.48;;;;;;;22.80;71.51;100255.00;5075628;28;20071;-69
2022/08/20 06:25:21;;;;;;;24.45;21.40;;;;;;;22.68;71.69;100247.69;5075599;28;20052;-69
2022/08/20 06:27:48;;;;;;;26.15;21.63;;;;;;;22.54;72.20;100259.81;5080577;28;20081;-69
2022/08/20 06:30:16;;;;;;;24.67;20.88;;;;;;;22.30;72.97;100255.72;5094107;28;20052;-68
2022/08/20 06:32:44;;;;;;;29.88;23.60;;;;;;;22.19;73.86;100249.94;5074751;28;20049;-68
2022/08/20 06:35:12;;;;;;;25.42;20.77;;;;;;;22.20;74.14;100250.78;5075766;28;20473;-69
2022/08/20 06:37:40;;;;;;;22.83;20.02;;;;;;;22.30;73.67;100250.03;5075110;28;20048;-69
2022/08/20 06:40:10;;;;;;;25.65;21.92;;;;;;;22.34;73.57;100256.50;5075234;28;20057;-69
2022/08/20 06:42:42;;;;;;;24.33;20.67;;;;;;;22.38;73.33;100254.50;5078023;28;20048;-69
2022/08/20 06:45:10;;;;;;;23.98;20.33;;;;;;;22.34;72.84;100256.50;5095798;28;20052;-70
2022/08/20 06:48:03;;;;;;;29.67;23.60;;;;;;;22.25;73.50;100256.88;5077910;28;20063;-69
2022/08/20 06:50:37;;;;;;;26.33;22.02;;;;;;;22.21;73.69;100258.06;5075140;28;20481;-70
2022/08/20 06:53:05;;;;;;;22.40;18.98;;;;;;;22.07;73.18;100265.31;5074544;28;20052;-69
2022/08/20 06:55:34;;;;;;;21.80;17.58;;;;;;;22.08;73.04;100263.28;5074775;28;20508;-69
2022/08/20 06:58:05;;;;;;;19.48;16.60;;;;;;;22.14;72.94;100263.72;5087176;28;20075;-71
2022/08/20 07:00:34;;;;;;;20.17;17.38;;;;;;;22.05;73.66;100267.72;5095318;28;20044;-70
2022/08/20 07:03:02;;;;;;;20.10;15.68;;;;;;;22.10;73.68;100273.00;5074977;28;20053;-69
2022/08/20 07:05:32;;;;;;;18.00;15.87;;;;;;;22.10;73.85;100270.16;5081573;28;20427;-70
2022/08/20 07:08:01;;;;;;;19.05;16.13;;;;;;;22.11;73.75;100273.81;5080380;28;20496;-70
2022/08/20 07:10:30;;;;;;;23.40;17.50;;;;;;;22.07;74.55;100279.50;5074457;28;20059;-70
2022/08/20 07:12:59;;;;;;;24.50;17.67;;;;;;;22.09;75.53;100279.09;5078541;28;20056;-71
2022/08/20 07:15:29;;;;;;;21.90;17.05;;;;;;;22.13;75.48;100285.56;5065682;28;20063;-70
2022/08/20 07:17:59;;;;;;;20.52;15.57;;;;;;;22.07;75.54;100276.66;5082872;28;20049;-70
2022/08/20 07:20:28;;;;;;;21.60;16.23;;;;;;;22.14;74.79;100277.91;5074609;28;20059;-69
2022/08/20 07:22:55;;;;;;;19.25;16.23;;;;;;;22.06;74.54;100280.69;5078998;28;20059;-68
2022/08/20 07:25:23;;;;;;;19.38;15.95;;;;;;;22.14;73.85;100275.88;5094823;28;20055;-69
2022/08/20 07:27:52;;;;;;;19.40;16.02;;;;;;;22.10;74.61;100286.38;5086090;28;20055;-70
2022/08/20 07:33:13;;;;;;;18.83;15.85;;;;;;;22.16;74.52;100286.81;5087075;28;20053;-70
2022/08/20 07:35:47;;;;;;;20.35;15.80;;;;;;;21.98;74.54;100286.72;5070390;28;20052;-70
2022/08/20 07:38:23;;;;;;;17.23;14.63;;;;;;;21.95;75.76;100284.69;5073021;28;20044;-70
2022/08/20 07:40:52;;;;;;;15.65;12.93;;;;;;;22.27;75.06;100297.03;5071260;28;20055;-71
2022/08/20 07:43:23;;;;;;;14.98;11.73;;;;;;;22.37;73.70;100292.63;5072396;28;20053;-67
2022/08/20 07:45:54;;;;;;;17.50;14.07;;;;;;;22.56;73.70;100302.81;5064662;28;20079;-69
2022/08/20 07:48:31;;;;;;;16.17;13.20;;;;;;;22.79;72.57;100293.94;5072672;28;20055;-70
2022/08/20 07:51:01;;;;;;;15.25;12.73;;;;;;;23.01;72.48;100294.81;5073054;28;20052;-69
2022/08/20 07:53:29;;;;;;;13.52;12.02;;;;;;;23.21;71.77;100298.09;5084971;28;20385;-71
2022/08/20 07:55:57;;;;;;;14.90;13.25;;;;;;;23.32;70.65;100294.44;5058281;28;20060;-71
2022/08/20 07:58:24;;;;;;;15.18;13.57;;;;;;;23.30;69.63;100298.50;5060526;28;20044;-64
2022/08/20 08:00:52;;;;;;;14.75;13.10;;;;;;;23.40;69.40;100298.91;5079409;28;20067;-62
2022/08/20 08:03:20;;;;;;;17.98;13.93;;;;;;;23.54;69.08;100287.53;5084917;28;20052;-63
2022/08/20 08:05:50;;;;;;;14.82;12.70;;;;;;;23.51;69.28;100299.69;5072492;28;20079;-63
2022/08/20 08:08:22;;;;;;;14.38;12.25;;;;;;;23.69;68.72;100288.31;5072330;28;20044;-62
2022/08/20 08:10:54;;;;;;;15.65;14.05;;;;;;;23.79;67.69;100293.22;5072589;28;20049;-62
2022/08/20 08:13:25;;;;;;;13.27;11.32;;;;;;;23.84;67.44;100289.94;5084342;28;20059;-63
2022/08/20 08:15:56;;;;;;;15.60;13.10;;;;;;;23.87;67.30;100291.13;5072410;28;20056;-63
2022/08/20 08:18:30;;;;;;;14.10;12.65;;;;;;;24.13;66.42;100289.03;5071688;28;20044;-62
2022/08/20 08:20:59;;;;;;;17.17;15.48;;;;;;;24.33;66.65;100289.38;5071219;28;20059;-62
2022/08/20 08:23:28;;;;;;;18.25;12.30;;;;;;;24.29;65.49;100298.72;5073321;28;20052;-63
2022/08/20 08:25:56;;;;;;;15.40;13.90;;;;;;;24.26;64.03;100296.72;5069538;28;20053;-61
2022/08/20 08:28:24;;;;;;;12.60;11.38;;;;;;;24.50;64.29;100291.34;5072005;28;20048;-62
2022/08/20 08:30:51;;;;;;;12.70;11.25;;;;;;;24.74;63.38;100301.00;5070514;28;20448;-62
2022/08/20 08:33:31;;;;;;;12.70;11.35;;;;;;;24.91;62.66;100293.56;5058215;28;20059;-61
2022/08/20 08:36:03;;;;;;;11.38;10.20;;;;;;;25.16;62.20;100301.94;5072160;28;20055;-62
2022/08/20 08:38:33;;;;;;;11.00;9.93;;;;;;;25.39;60.60;100298.50;5072159;28;20397;-62
2022/08/20 08:41:07;;;;;;;11.27;10.18;;;;;;;25.54;60.04;100290.63;5084059;28;20051;-62
2022/08/20 08:43:35;;;;;;;10.80;9.73;;;;;;;25.94;59.52;100293.94;5076855;28;20394;-63
2022/08/20 08:46:09;;;;;;;10.55;8.77;;;;;;;26.17;58.05;100293.25;5072710;28;20064;-63
2022/08/20 08:48:42;;;;;;;10.52;9.43;;;;;;;26.56;57.34;100303.34;5070847;28;20045;-63
2022/08/20 08:51:16;;;;;;;9.90;9.00;;;;;;;26.89;56.22;100298.03;5071294;28;20052;-63
2022/08/20 08:53:53;;;;;;;10.23;9.32;;;;;;;27.08;54.64;100300.19;5072786;28;20045;-62
2022/08/20 08:56:23;;;;;;;10.10;9.18;;;;;;;27.24;54.33;100302.41;5075111;28;20059;-63
2022/08/20 08:58:53;;;;;;;10.73;9.55;;;;;;;27.09;53.87;100306.72;5070690;28;20488;-62
2022/08/20 09:01:23;;;;;;;10.73;9.77;;;;;;;26.91;53.41;100306.97;5071553;28;20087;-61
2022/08/20 09:03:51;;;;;;;10.45;9.48;;;;;;;27.48;52.05;100311.81;5070980;28;20044;-62
2022/08/20 09:06:23;;;;;;;10.95;9.90;;;;;;;26.97;52.97;100316.69;5072491;28;20053;-62
2022/08/20 09:08:52;;;;;;;10.30;9.40;;;;;;;27.64;52.69;100319.72;5060190;28;20056;-62
2022/08/20 09:11:21;;;;;;;10.30;9.30;;;;;;;28.70;51.04;100308.66;5062662;28;20049;-62
2022/08/20 09:13:49;;;;;;;9.82;8.63;;;;;;;29.80;48.71;100309.28;5070330;28;20063;-62
2022/08/20 09:16:16;;;;;;;10.05;9.15;;;;;;;31.02;44.80;100306.59;5065521;28;20512;-64
2022/08/20 09:18:44;;;;;;;8.77;7.97;;;;;;;31.97;42.06;100317.38;5069857;28;20063;-63
2022/08/20 09:21:13;;;;;;;8.25;7.55;;;;;;;32.34;40.72;100312.75;5069780;28;20048;-63
2022/08/20 09:23:42;;;;;;;9.48;8.57;;;;;;;32.13;40.84;100317.22;5071974;28;20052;-61
2022/08/20 09:26:10;;;;;;;8.30;7.55;;;;;;;32.02;41.64;100313.91;5062989;28;20048;-63
2022/08/20 09:28:37;;;;;;;7.50;6.83;;;;;;;32.07;41.48;100319.09;5053210;28;20056;-64
2022/08/20 09:31:05;;;;;;;8.15;7.15;;;;;;;32.22;41.36;100319.38;5067977;28;20998;-64
2022/08/20 09:33:32;;;;;;;7.70;7.00;;;;;;;32.22;41.53;100316.47;5071888;28;20049;-64
2022/08/20 09:36:02;;;;;;;8.57;7.78;;;;;;;31.81;42.02;100315.44;5071907;28;20059;-63
2022/08/20 09:38:29;;;;;;;8.27;7.43;;;;;;;33.77;37.95;100311.16;5071868;28;20044;-63
2022/08/20 09:40:58;;;;;;;8.30;7.50;;;;;;;33.03;39.00;100312.97;5080340;28;20051;-64
2022/08/20 09:43:28;;;;;;;8.00;7.30;;;;;;;32.58;38.97;100303.63;5078287;28;20504;-64
2022/08/20 09:45:55;;;;;;;8.98;8.18;;;;;;;33.10;39.32;100304.88;5091800;28;20048;-62
2022/08/20 09:48:23;;;;;;;8.30;7.60;;;;;;;33.46;38.63;100309.16;5076752;28;20417;-64
2022/08/20 09:50:51;;;;;;;7.07;6.47;;;;;;;34.97;36.37;100303.16;5071778;28;20056;-64
2022/08/20 09:53:20;;;;;;;8.02;7.38;;;;;;;36.79;32.74;100302.78;5069691;28;20048;-62
2022/08/20 09:55:52;;;;;;;7.75;7.05;;;;;;;37.92;30.19;100302.38;5061563;28;20052;-64
2022/08/20 09:58:24;;;;;;;8.32;7.72;;;;;;;38.16;28.56;100296.34;5070355;28;20048;-64
2022/08/20 10:00:51;;;;;;;6.63;6.13;;;;;;;38.25;30.26;100292.47;5071600;28;20060;-63
2022/08/20 10:03:19;;;;;;;6.53;6.00;;;;;;;39.35;29.45;100298.22;5079766;28;20080;-64
2022/08/20 10:05:47;;;;;;;6.03;5.53;;;;;;;39.15;28.52;100302.03;5068611;28;20061;-63
2022/08/20 10:08:14;;;;;;;7.70;7.10;;;;;;;38.57;28.12;100301.28;5068150;28;20052;-63
2022/08/20 10:10:41;;;;;;;7.32;6.75;;;;;;;38.41;28.34;100296.88;5068356;28;20486;-63
2022/08/20 10:13:09;;;;;;;7.00;6.40;;;;;;;37.65;28.75;100308.63;5067609;28;20055;-63
2022/08/20 10:15:37;;;;;;;6.38;5.88;;;;;;;38.01;29.42;100303.53;5066029;28;20053;-63
2022/08/20 10:18:06;;;;;;;8.13;7.53;;;;;;;36.88;30.69;100310.59;5081284;28;20048;-63
2022/08/20 10:20:35;;;;;;;8.07;7.38;;;;;;;36.03;31.62;100317.66;5070763;28;20462;-63
2022/08/20 10:23:02;;;;;;;;;;;;;;;37.23;30.75;100312.75;5067686;28;20055;-63
2022/08/20 10:25:30;;;;;;;8.63;7.93;;;;;;;38.05;28.88;100313.69;5071649;28;19943;-63
2022/08/20 10:27:57;;;;;;;8.70;8.00;;;;;;;38.76;28.14;100317.06;5071196;28;20416;-64
2022/08/20 10:30:25;;;;;;;8.85;8.15;;;;;;;40.02;27.34;100310.75;5083464;28;20052;-62
2022/08/20 10:32:54;;;;;;;9.77;8.97;;;;;;;40.30;26.22;100300.00;5094968;28;20052;-63
2022/08/20 10:35:21;;;;;;;9.65;8.90;;;;;;;41.46;24.80;100313.56;5076441;28;20470;-64
2022/08/20 10:37:49;;;;;;;9.68;8.88;;;;;;;42.11;23.70;100302.69;5074864;28;20057;-63
2022/08/20 10:40:16;;;;;;;15.05;13.55;;;;;;;40.51;24.92;100315.16;5074797;28;20048;-63
2022/08/20 10:42:44;;;;;;;18.88;17.27;;;;;;;38.67;27.39;100313.53;5074186;28;20053;-63
2022/08/20 10:45:13;;;;;;;20.60;18.88;;;;;;;37.12;29.72;100319.19;5085112;28;20052;-63
2022/08/20 10:47:40;;;;;;;21.92;20.02;;;;;;;36.35;30.82;100332.56;5088824;28;20068;-63
2022/08/20 10:50:14;;;;;;;21.13;19.23;;;;;;;36.56;31.08;100330.56;5082679;28;20051;-63
2022/08/20 10:52:41;;;;;;;21.45;19.55;;;;;;;37.89;28.80;100328.78;5074886;28;20059;-63
2022/08/20 10:55:09;;;;;;;21.65;19.75;;;;;;;38.42;28.19;100329.66;5075112;28;20056;-64
2022/08/20 10:57:39;;;;;;;23.77;21.48;;;;;;;37.94;28.61;100317.19;5074964;28;20059;-64
2022/08/20 11:00:09;;;;;;;21.67;19.77;;;;;;;37.54;29.47;100327.47;5081509;28;20052;-64
2022/08/20 11:02:36;;;;;;;23.13;21.08;;;;;;;37.77;28.13;100328.59;5093807;28;20071;-64
2022/08/20 11:05:05;;;;;;;21.67;19.63;;;;;;;37.92;28.15;100328.53;5080027;28;20052;-62
2022/08/20 11:07:34;;;;;;;;;;;;;;;38.69;27.81;100331.28;5075040;28;20471;-62
2022/08/20 11:10:03;;;;;;;20.58;18.77;;;;;;;39.69;27.07;100318.00;5074147;28;19947;-62
2022/08/20 11:12:30;;;;;;;20.85;19.08;;;;;;;39.98;26.12;100313.91;5074327;28;20052;-62
2022/08/20 11:14:57;;;;;;;20.97;19.17;;;;;;;39.06;27.01;100319.72;5074282;28;20045;-62
2022/08/20 11:17:29;;;;;;;21.40;19.50;;;;;;;39.03;26.55;100319.97;5072855;28;20494;-62
2022/08/20 11:19:57;;;;;;;19.00;17.30;;;;;;;38.68;27.46;100321.78;5056512;28;20053;-62
2022/08/20 11:22:24;;;;;;;;;;;;;;;37.36;28.29;100339.38;5075131;28;20048;-62
2022/08/20 11:24:54;;;;;;;19.60;17.80;;;;;;;37.78;27.84;100335.25;5073886;28;19920;-62
2022/08/20 11:27:25;;;;;;;20.80;19.00;;;;;;;38.13;27.39;100328.56;5074248;28;20052;-63
2022/08/20 11:29:53;;;;;;;19.48;17.88;;;;;;;37.33;28.28;100335.34;5071574;28;20045;-63